Time;durP1;ratioP1;P1;durP2;ratioP2;P2;SDS_P1;SDS_P2;PMS_P1;PMS_P2;Temp;Humidity;BMP_temperature;BMP_pressure;BME280_temperature;BME280_humidity;BME280_pressure;Samples;Min_cycle;Max_cycle;Signal;HPM_P1;HPM_P2
2023/12/26 00:00:53;;;;;;;2.50;0.80;;;9.40;99.90;;;;;;5046546;28;20045;-75
2023/12/26 00:03:19;;;;;;;1.13;0.50;;;9.40;99.90;;;;;;5032340;28;20041;-76
2023/12/26 00:05:45;;;;;;;2.83;0.65;;;9.50;99.90;;;;;;5029847;28;20350;-75
2023/12/26 00:08:10;;;;;;;1.02;0.63;;;9.40;99.90;;;;;;5028041;28;20131;-75
2023/12/26 00:10:36;;;;;;;1.20;0.57;;;9.40;99.90;;;;;;5046381;28;20047;-76
2023/12/26 00:13:03;;;;;;;0.98;0.70;;;9.40;99.90;;;;;;5027425;28;20047;-76
2023/12/26 00:15:30;;;;;;;1.15;0.68;;;9.40;99.90;;;;;;5032140;28;20439;-75
2023/12/26 00:17:55;;;;;;;2.63;0.60;;;9.50;99.90;;;;;;5032961;28;20076;-76
2023/12/26 00:20:21;;;;;;;0.85;0.30;;;9.40;99.90;;;;;;5025050;28;20076;-75
2023/12/26 00:22:47;;;;;;;1.65;0.50;;;9.40;99.90;;;;;;5037626;28;20361;-76
2023/12/26 00:25:13;;;;;;;2.45;0.60;;;9.40;99.90;;;;;;5026811;28;20396;-76
2023/12/26 00:27:39;;;;;;;1.50;1.00;;;9.50;99.90;;;;;;5040737;28;20091;-75
2023/12/26 00:30:07;;;;;;;0.70;0.40;;;9.50;99.90;;;;;;5039919;28;20091;-76
2023/12/26 00:32:34;;;;;;;0.20;0.20;;;9.40;99.90;;;;;;5025571;28;20624;-76
2023/12/26 00:34:59;;;;;;;0.85;0.57;;;9.50;99.90;;;;;;5012410;28;20040;-76
2023/12/26 00:37:25;;;;;;;2.38;0.47;;;9.50;99.90;;;;;;5023038;28;20045;-76
2023/12/26 00:39:52;;;;;;;1.40;0.43;;;9.50;99.90;;;;;;5011063;28;20037;-76
2023/12/26 00:42:18;;;;;;;2.05;0.30;;;9.50;99.90;;;;;;5013919;28;20405;-76
2023/12/26 00:44:47;;;;;;;0.32;0.20;;;9.50;99.90;;;;;;5060542;28;20495;-76
2023/12/26 00:47:13;;;;;;;4.30;0.52;;;9.50;99.90;;;;;;5036318;28;20055;-75
2023/12/26 00:49:39;;;;;;;0.63;0.30;;;9.50;99.90;;;;;;5016426;28;20045;-75
2023/12/26 00:52:04;;;;;;;1.40;0.50;;;9.50;99.90;;;;;;5025374;28;20063;-75
2023/12/26 00:54:30;;;;;;;1.48;0.63;;;9.50;99.90;;;;;;5024892;28;20040;-76
2023/12/26 00:56:56;;;;;;;1.65;0.40;;;9.60;99.90;;;;;;5043197;28;20036;-76
2023/12/26 00:59:23;;;;;;;3.60;0.45;;;9.50;99.90;;;;;;5026542;28;20081;-76
2023/12/26 01:01:48;;;;;;;1.00;0.38;;;9.60;99.90;;;;;;5035610;28;20056;-77
2023/12/26 01:04:14;;;;;;;0.20;0.20;;;9.60;99.90;;;;;;5025748;28;20093;-77
2023/12/26 01:06:40;;;;;;;1.48;0.50;;;9.60;99.90;;;;;;5006981;28;20440;-76
2023/12/26 01:09:06;;;;;;;1.33;0.40;;;9.70;99.90;;;;;;5009094;28;20053;-76
2023/12/26 01:11:32;;;;;;;0.52;0.30;;;9.70;99.90;;;;;;5027341;28;20552;-76
2023/12/26 01:13:57;;;;;;;0.60;0.30;;;9.60;99.90;;;;;;5025036;28;20089;-76
2023/12/26 01:16:27;;;;;;;0.30;0.30;;;9.60;99.90;;;;;;5021444;28;20046;-76
2023/12/26 01:18:53;;;;;;;1.55;0.57;;;9.80;99.90;;;;;;5029550;28;20469;-76
2023/12/26 01:21:19;;;;;;;0.90;0.20;;;9.70;99.90;;;;;;5009314;28;20061;-76
2023/12/26 01:23:44;;;;;;;0.20;0.20;;;9.80;99.90;;;;;;5043504;28;20052;-76
2023/12/26 01:26:10;;;;;;;0.20;0.20;;;9.70;99.90;;;;;;5031303;28;20062;-76
2023/12/26 01:28:36;;;;;;;0.35;0.20;;;9.70;99.90;;;;;;5041249;28;20036;-76
2023/12/26 01:31:02;;;;;;;0.00;0.00;;;9.70;99.90;;;;;;5040587;28;20107;-76
2023/12/26 01:33:28;;;;;;;0.75;0.13;;;9.70;99.90;;;;;;5018866;28;20045;-76
2023/12/26 01:35:54;;;;;;;0.17;0.10;;;9.80;99.90;;;;;;5029723;28;20057;-75
2023/12/26 01:38:19;;;;;;;0.40;0.20;;;9.80;99.90;;;;;;5035147;28;20117;-75
2023/12/26 01:40:45;;;;;;;0.15;0.15;;;9.80;99.90;;;;;;5019524;28;20079;-76
2023/12/26 01:43:11;;;;;;;1.02;0.28;;;9.80;99.90;;;;;;5036934;28;20391;-76
2023/12/26 01:45:37;;;;;;;0.08;0.08;;;9.70;99.90;;;;;;5038324;28;20720;-76
2023/12/26 01:48:04;;;;;;;0.10;0.10;;;9.80;99.90;;;;;;5033850;28;20554;-76
2023/12/26 01:50:31;;;;;;;0.77;0.28;;;9.70;99.90;;;;;;5030796;28;20124;-75
2023/12/26 01:52:57;;;;;;;2.50;0.47;;;9.80;99.90;;;;;;5025600;28;20059;-75
2023/12/26 01:55:23;;;;;;;1.58;0.50;;;9.70;99.90;;;;;;5056938;28;20048;-75
2023/12/26 01:57:49;;;;;;;6.05;0.82;;;9.70;99.90;;;;;;5042060;28;20459;-75
2023/12/26 02:00:15;;;;;;;0.10;0.10;;;9.70;99.90;;;;;;5041515;28;20082;-75
2023/12/26 02:02:43;;;;;;;4.32;0.28;;;9.70;99.90;;;;;;5023218;28;20130;-75
2023/12/26 02:05:10;;;;;;;7.00;0.80;;;9.70;99.90;;;;;;5031734;28;20037;-74
2023/12/26 02:07:36;;;;;;;1.90;0.30;;;9.80;99.90;;;;;;5018170;28;20282;-75
2023/12/26 02:10:04;;;;;;;0.22;0.20;;;9.70;99.90;;;;;;5026707;28;20043;-75
2023/12/26 02:12:30;;;;;;;2.00;0.50;;;9.70;99.90;;;;;;5042830;28;20131;-75
2023/12/26 02:15:03;;;;;;;1.17;0.30;;;9.70;99.90;;;;;;5037773;28;20086;-75
2023/12/26 02:17:30;;;;;;;5.43;0.60;;;9.70;99.90;;;;;;5039967;28;20087;-74
2023/12/26 02:19:56;;;;;;;3.17;0.75;;;9.70;99.90;;;;;;5023774;28;20048;-75
2023/12/26 02:22:22;;;;;;;3.60;0.93;;;9.60;99.90;;;;;;5055797;28;20118;-75
2023/12/26 02:24:48;;;;;;;6.50;0.82;;;9.70;99.90;;;;;;5034782;28;20083;-75
2023/12/26 02:27:20;;;;;;;2.05;0.15;;;9.60;99.90;;;;;;5060493;28;20049;-75
2023/12/26 02:29:51;;;;;;;0.73;0.20;;;9.60;99.90;;;;;;5040473;28;20045;-75
2023/12/26 02:32:19;;;;;;;2.63;0.63;;;9.60;99.90;;;;;;5030782;28;20140;-75
2023/12/26 02:34:47;;;;;;;2.25;0.77;;;9.60;99.90;;;;;;5033450;28;20036;-75
2023/12/26 02:37:13;;;;;;;1.65;0.45;;;9.70;99.90;;;;;;5040016;28;20853;-75
2023/12/26 02:39:43;;;;;;;2.92;0.43;;;9.70;99.90;;;;;;5035255;28;20476;-74
2023/12/26 02:42:11;;;;;;;4.43;0.57;;;9.60;99.90;;;;;;5066260;28;20098;-74
2023/12/26 02:44:37;;;;;;;4.47;0.77;;;9.60;99.90;;;;;;5059675;28;20041;-74
2023/12/26 02:47:03;;;;;;;14.35;1.45;;;9.70;99.90;;;;;;5047143;28;20047;-74
2023/12/26 02:49:28;;;;;;;11.30;2.05;;;9.70;99.90;;;;;;5046958;28;20483;-74
2023/12/26 02:51:54;;;;;;;17.63;2.45;;;9.70;99.90;;;;;;5059477;28;20052;-74
2023/12/26 02:54:20;;;;;;;16.95;2.67;;;9.70;99.90;;;;;;5045071;28;20495;-74
2023/12/26 02:56:46;;;;;;;13.07;2.25;;;9.70;99.90;;;;;;5046359;28;20044;-74
2023/12/26 02:59:12;;;;;;;1.20;0.65;;;9.70;99.90;;;;;;5050909;28;20048;-74
2023/12/26 03:01:37;;;;;;;19.02;2.55;;;9.70;99.90;;;;;;5049143;28;20133;-74
2023/12/26 03:04:03;;;;;;;10.30;1.83;;;9.60;99.90;;;;;;5054758;28;20101;-73
2023/12/26 03:06:29;;;;;;;13.65;1.65;;;9.60;99.90;;;;;;5029885;28;20055;-73
2023/12/26 03:08:55;;;;;;;12.77;1.90;;;9.50;99.90;;;;;;5046703;28;20575;-74
2023/12/26 03:11:20;;;;;;;6.90;1.30;;;9.50;99.90;;;;;;5030847;28;20147;-74
2023/12/26 03:13:46;;;;;;;4.85;0.90;;;9.50;99.90;;;;;;5016172;28;20045;-74
2023/12/26 03:16:12;;;;;;;2.47;0.63;;;9.40;99.90;;;;;;5037975;28;20459;-74
2023/12/26 03:18:37;;;;;;;3.33;0.70;;;9.40;99.90;;;;;;5028194;28;20052;-74
2023/12/26 03:21:03;;;;;;;13.80;2.30;;;9.40;99.90;;;;;;5022190;28;20036;-74
2023/12/26 03:23:29;;;;;;;4.18;0.93;;;9.40;99.90;;;;;;5029211;28;20372;-74
2023/12/26 03:25:55;;;;;;;3.63;1.05;;;9.40;99.90;;;;;;5044300;28;20506;-74
2023/12/26 03:28:20;;;;;;;19.80;2.58;;;9.40;99.90;;;;;;5063928;28;20048;-73
2023/12/26 03:30:46;;;;;;;4.72;0.73;;;9.30;99.90;;;;;;5032152;28;20459;-74
2023/12/26 03:33:12;;;;;;;9.48;1.63;;;9.30;99.90;;;;;;5041148;28;20052;-73
2023/12/26 03:35:37;;;;;;;4.88;0.95;;;9.20;99.90;;;;;;5061694;28;20048;-74
2023/12/26 03:38:03;;;;;;;7.93;1.48;;;9.20;99.90;;;;;;5023517;28;20047;-74
2023/12/26 03:40:29;;;;;;;13.15;3.13;;;9.20;99.90;;;;;;5025173;28;20052;-73
2023/12/26 03:42:55;;;;;;;13.93;1.83;;;9.10;99.90;;;;;;5035635;28;20048;-73
2023/12/26 03:45:21;;;;;;;10.70;1.92;;;9.10;99.90;;;;;;5038575;28;20052;-73
2023/12/26 03:47:47;;;;;;;9.85;1.80;;;9.00;99.90;;;;;;5028390;28;20046;-73
2023/12/26 03:50:13;;;;;;;8.23;1.38;;;9.00;99.90;;;;;;5012093;28;20083;-74
2023/12/26 03:52:40;;;;;;;3.47;0.40;;;8.90;99.90;;;;;;5051927;28;20059;-74
2023/12/26 03:55:06;;;;;;;6.80;1.20;;;8.90;99.90;;;;;;5034549;28;20564;-73
2023/12/26 03:57:32;;;;;;;3.50;1.27;;;8.90;99.90;;;;;;5028836;28;20128;-73
2023/12/26 03:59:58;;;;;;;3.45;1.08;;;8.90;99.90;;;;;;5045590;28;20044;-74
2023/12/26 04:02:24;;;;;;;15.10;2.20;;;8.80;99.90;;;;;;5023855;28;20045;-72
2023/12/26 04:04:49;;;;;;;4.10;0.70;;;8.90;99.90;;;;;;5032080;28;20091;-73
2023/12/26 04:07:15;;;;;;;8.88;1.85;;;8.80;99.90;;;;;;5028253;28;20040;-74
2023/12/26 04:09:41;;;;;;;8.50;2.05;;;8.80;99.90;;;;;;5043848;28;20044;-73
2023/12/26 04:12:07;;;;;;;10.70;2.22;;;8.90;99.90;;;;;;5037221;28;20044;-73
2023/12/26 04:14:32;;;;;;;21.02;3.72;;;8.90;99.90;;;;;;5037947;28;20041;-73
2023/12/26 04:16:58;;;;;;;9.75;1.52;;;8.90;99.90;;;;;;5031535;28;20051;-73
2023/12/26 04:19:25;;;;;;;11.88;2.90;;;8.90;99.90;;;;;;5022045;28;20048;-73
2023/12/26 04:21:51;;;;;;;0.68;0.30;;;8.90;99.90;;;;;;5025842;28;20048;-74
2023/12/26 04:24:16;;;;;;;7.65;1.27;;;8.80;99.90;;;;;;5042336;28;20083;-74
2023/12/26 04:26:42;;;;;;;9.27;1.27;;;8.70;99.90;;;;;;5037380;28;20044;-73
2023/12/26 04:29:08;;;;;;;1.80;0.98;;;8.70;99.90;;;;;;5018533;28;20033;-73
2023/12/26 04:31:34;;;;;;;9.65;1.63;;;8.60;99.90;;;;;;5039054;28;20080;-74
2023/12/26 04:33:59;;;;;;;4.63;1.27;;;8.60;99.90;;;;;;5062219;28;20494;-74
2023/12/26 04:36:25;;;;;;;6.10;1.05;;;8.50;99.90;;;;;;5036439;28;20037;-73
2023/12/26 04:38:51;;;;;;;2.35;0.50;;;8.50;99.90;;;;;;5050157;28;20071;-73
2023/12/26 04:41:16;;;;;;;3.70;0.77;;;8.50;99.90;;;;;;5036796;28;20053;-73
2023/12/26 04:43:42;;;;;;;3.20;0.90;;;8.50;99.90;;;;;;5042749;28;20044;-73
2023/12/26 04:46:16;;;;;;;11.50;1.60;;;8.50;99.90;;;;;;5039933;28;20194;-73
2023/12/26 04:48:42;;;;;;;10.40;0.68;;;8.40;99.90;;;;;;5041161;28;20044;-73
2023/12/26 04:51:08;;;;;;;31.63;3.53;;;8.40;99.90;;;;;;5035686;28;20056;-72
2023/12/26 04:53:33;;;;;;;20.77;3.40;;;8.40;99.90;;;;;;5014914;28;20053;-72
2023/12/26 04:55:59;;;;;;;11.18;1.63;;;8.30;99.90;;;;;;5028189;28;20433;-73
2023/12/26 04:58:25;;;;;;;9.30;1.00;;;8.30;99.90;;;;;;5016238;28;20040;-72
2023/12/26 05:00:50;;;;;;;5.88;1.67;;;8.30;99.90;;;;;;5037161;28;20081;-73
2023/12/26 05:03:16;;;;;;;11.70;2.75;;;8.30;99.90;;;;;;5036359;28;20391;-72
2023/12/26 05:05:42;;;;;;;4.30;1.02;;;8.40;99.90;;;;;;5061866;28;20213;-72
2023/12/26 05:08:08;;;;;;;25.48;5.03;;;8.30;99.90;;;;;;5042853;28;20040;-72
2023/12/26 05:10:33;;;;;;;12.85;2.33;;;8.30;99.90;;;;;;5026693;28;20055;-72
2023/12/26 05:12:59;;;;;;;15.45;2.28;;;8.30;99.90;;;;;;5009258;28;20122;-72
2023/12/26 05:15:25;;;;;;;6.85;1.13;;;8.30;99.90;;;;;;5032965;28;20052;-72
2023/12/26 05:17:50;;;;;;;2.50;0.80;;;8.30;99.90;;;;;;5014650;28;20047;-72
2023/12/26 05:20:16;;;;;;;9.07;1.58;;;8.40;99.90;;;;;;5032916;28;20368;-72
2023/12/26 05:22:42;;;;;;;10.23;2.20;;;8.40;99.90;;;;;;5040350;28;20037;-73
2023/12/26 05:25:10;;;;;;;10.77;1.77;;;8.30;99.90;;;;;;5031076;28;20052;-72
2023/12/26 05:27:36;;;;;;;18.52;3.75;;;8.40;99.90;;;;;;5059468;28;20061;-72
2023/12/26 05:30:02;;;;;;;5.55;1.63;;;8.40;99.90;;;;;;5036932;28;20052;-72
2023/12/26 05:32:28;;;;;;;21.73;3.67;;;8.30;99.90;;;;;;5036844;28;20080;-72
2023/12/26 05:34:55;;;;;;;11.35;2.08;;;8.40;99.90;;;;;;5038596;28;20773;-72
2023/12/26 05:37:22;;;;;;;11.25;1.95;;;8.40;99.90;;;;;;5042851;28;20048;-72
2023/12/26 05:39:48;;;;;;;5.22;0.82;;;8.40;99.90;;;;;;5025564;28;20102;-72
2023/12/26 05:42:15;;;;;;;2.65;0.88;;;8.40;99.90;;;;;;5034702;28;20052;-72
2023/12/26 05:44:40;;;;;;;2.80;1.00;;;8.40;99.90;;;;;;5034036;28;20053;-73
2023/12/26 05:47:06;;;;;;;25.65;3.45;;;8.50;99.90;;;;;;5015925;28;20533;-72
2023/12/26 05:49:32;;;;;;;3.65;0.82;;;8.50;99.90;;;;;;5022595;28;20388;-73
2023/12/26 05:51:58;;;;;;;4.28;0.90;;;8.50;99.90;;;;;;5021830;28;20390;-73
2023/12/26 05:54:23;;;;;;;4.20;1.17;;;8.50;99.90;;;;;;5026388;28;20061;-72
2023/12/26 05:56:50;;;;;;;4.40;0.90;;;8.50;99.90;;;;;;5037615;28;20422;-72
2023/12/26 05:59:15;;;;;;;11.50;2.22;;;8.50;99.90;;;;;;5035095;28;20037;-72
2023/12/26 06:01:46;;;;;;;9.80;1.40;;;8.50;99.90;;;;;;5041700;28;20048;-73
2023/12/26 06:04:12;;;;;;;2.42;0.75;;;8.60;99.90;;;;;;5019310;28;20052;-71
2023/12/26 06:06:38;;;;;;;7.50;0.82;;;8.50;99.90;;;;;;5023343;28;20048;-72
2023/12/26 06:09:03;;;;;;;5.70;1.52;;;8.60;99.90;;;;;;5030441;28;20188;-72
2023/12/26 06:11:29;;;;;;;17.05;2.83;;;8.50;99.90;;;;;;5034339;28;20052;-72
2023/12/26 06:13:55;;;;;;;9.02;1.25;;;8.60;99.90;;;;;;5033916;28;20103;-72
2023/12/26 06:16:21;;;;;;;8.48;1.52;;;8.60;99.90;;;;;;5041711;28;20040;-72
2023/12/26 06:18:47;;;;;;;12.63;1.92;;;8.60;99.90;;;;;;5016896;28;20040;-71
2023/12/26 06:21:12;;;;;;;1.40;0.60;;;8.60;99.90;;;;;;5035473;28;20044;-72
2023/12/26 06:23:38;;;;;;;19.27;2.85;;;8.50;99.90;;;;;;5022171;28;20479;-72
2023/12/26 06:26:07;;;;;;;2.65;0.60;;;8.50;99.90;;;;;;5041508;28;20056;-72
2023/12/26 06:28:33;;;;;;;2.58;0.70;;;8.50;99.90;;;;;;5039469;28;20398;-71
2023/12/26 06:30:59;;;;;;;13.48;2.28;;;8.50;99.90;;;;;;5027276;28;20052;-71
2023/12/26 06:33:25;;;;;;;7.70;1.35;;;8.50;99.90;;;;;;5038728;28;20040;-72
2023/12/26 06:35:50;;;;;;;9.73;1.58;;;8.50;99.90;;;;;;5031971;28;20086;-72
2023/12/26 06:38:16;;;;;;;10.13;1.23;;;8.50;99.90;;;;;;5027721;28;20346;-72
2023/12/26 06:40:43;;;;;;;3.05;0.98;;;8.50;99.90;;;;;;5017709;28;20048;-72
2023/12/26 06:43:14;;;;;;;14.27;1.70;;;8.50;99.90;;;;;;5029039;28;20529;-71
2023/12/26 06:45:39;;;;;;;11.20;2.25;;;8.60;99.90;;;;;;5032698;28;20053;-71
2023/12/26 06:48:05;;;;;;;6.15;0.90;;;8.60;99.90;;;;;;5026900;28;20045;-72
2023/12/26 06:50:31;;;;;;;8.73;1.08;;;8.60;99.90;;;;;;5042532;28;20142;-72
2023/12/26 06:52:57;;;;;;;3.50;0.68;;;8.60;99.90;;;;;;5026295;28;20407;-71
2023/12/26 06:55:22;;;;;;;19.05;2.95;;;8.60;99.90;;;;;;5035154;28;20518;-71
2023/12/26 06:57:48;;;;;;;2.22;0.57;;;8.60;99.90;;;;;;5028690;28;20048;-72
2023/12/26 07:00:17;;;;;;;4.15;0.93;;;8.60;99.90;;;;;;5033354;28;20392;-71
2023/12/26 07:02:43;;;;;;;8.63;1.40;;;8.60;99.90;;;;;;5019603;28;20084;-72
2023/12/26 07:05:09;;;;;;;9.52;1.33;;;8.60;99.90;;;;;;5027526;28;20072;-72
2023/12/26 07:07:35;;;;;;;8.82;2.10;;;8.60;99.90;;;;;;5037913;28;20040;-71
2023/12/26 07:10:01;;;;;;;9.73;1.30;;;8.60;99.90;;;;;;5045961;28;20048;-72
2023/12/26 07:12:26;;;;;;;7.95;1.33;;;8.60;99.90;;;;;;5015844;28;20537;-71
2023/12/26 07:14:52;;;;;;;3.22;1.00;;;8.70;99.90;;;;;;5044859;28;20052;-72
2023/12/26 07:17:18;;;;;;;4.00;1.42;;;8.60;99.90;;;;;;5029296;28;20051;-72
2023/12/26 07:19:44;;;;;;;5.72;1.25;;;8.60;99.90;;;;;;5038863;28;20052;-72
2023/12/26 07:22:09;;;;;;;2.05;0.77;;;8.60;99.90;;;;;;5030227;28;20390;-72
2023/12/26 07:24:35;;;;;;;2.28;1.10;;;8.50;99.90;;;;;;5036949;28;20577;-72
2023/12/26 07:27:01;;;;;;;2.50;0.88;;;8.50;99.90;;;;;;5023044;28;20052;-72
2023/12/26 07:29:28;;;;;;;1.65;1.23;;;8.60;99.90;;;;;;5039558;28;20619;-72
2023/12/26 07:31:54;;;;;;;7.20;1.00;;;8.60;99.90;;;;;;5038593;28;20380;-71
2023/12/26 07:34:20;;;;;;;11.27;1.85;;;8.60;99.90;;;;;;5038429;28;20127;-72
2023/12/26 07:36:46;;;;;;;13.77;2.35;;;8.60;99.90;;;;;;5039584;28;20747;-72
2023/12/26 07:39:12;;;;;;;13.70;2.05;;;8.60;99.90;;;;;;5037637;28;20056;-71
2023/12/26 07:41:37;;;;;;;6.53;1.50;;;8.50;99.90;;;;;;5038993;28;20368;-72
2023/12/26 07:44:03;;;;;;;2.92;0.77;;;8.50;99.90;;;;;;5042835;28;20645;-72
2023/12/26 07:46:29;;;;;;;1.90;1.00;;;8.50;99.90;;;;;;5031022;28;20048;-72
2023/12/26 07:48:55;;;;;;;1.50;0.63;;;8.50;99.90;;;;;;5027555;28;20043;-72
2023/12/26 07:51:21;;;;;;;7.57;1.88;;;8.50;99.90;;;;;;5026736;28;20136;-72
2023/12/26 07:53:49;;;;;;;3.50;0.70;;;8.40;99.90;;;;;;5043931;28;20052;-71
2023/12/26 07:56:15;;;;;;;3.45;0.55;;;8.40;99.90;;;;;;5029189;28;20442;-72
2023/12/26 07:58:41;;;;;;;4.13;0.95;;;8.40;99.90;;;;;;5024130;28;20041;-71
2023/12/26 08:01:07;;;;;;;5.85;1.05;;;8.40;99.90;;;;;;5039101;28;20087;-71
2023/12/26 08:03:33;;;;;;;3.92;0.50;;;8.40;99.90;;;;;;5042997;28;21721;-72
2023/12/26 08:05:58;;;;;;;10.07;1.63;;;8.40;99.90;;;;;;5028988;28;20044;-71
2023/12/26 08:08:24;;;;;;;2.20;0.73;;;8.40;99.90;;;;;;5030191;28;20044;-72
2023/12/26 08:10:50;;;;;;;10.77;1.40;;;8.40;99.90;;;;;;5026498;28;20498;-72
2023/12/26 08:13:16;;;;;;;8.38;1.05;;;8.50;99.90;;;;;;5028797;28;20048;-71
2023/12/26 08:15:42;;;;;;;3.40;1.52;;;8.50;99.90;;;;;;5050393;28;20040;-72
2023/12/26 08:18:08;;;;;;;11.43;1.95;;;8.50;99.90;;;;;;5052656;28;20048;-71
2023/12/26 08:20:34;;;;;;;4.60;0.93;;;8.50;99.90;;;;;;5049902;28;20562;-72
2023/12/26 08:23:00;;;;;;;3.83;1.05;;;8.50;99.90;;;;;;5031084;28;20106;-72
2023/12/26 08:25:26;;;;;;;9.82;1.35;;;8.50;99.90;;;;;;5048581;28;20044;-71
2023/12/26 08:27:51;;;;;;;5.45;1.50;;;8.50;99.90;;;;;;5038340;28;20509;-71
2023/12/26 08:30:19;;;;;;;18.35;2.05;;;8.50;99.90;;;;;;5025765;28;20048;-71
2023/12/26 08:32:45;;;;;;;3.95;0.98;;;8.50;99.90;;;;;;5047378;28;20049;-71
2023/12/26 08:35:11;;;;;;;7.63;0.90;;;8.50;99.90;;;;;;5041682;28;20465;-72
2023/12/26 08:37:37;;;;;;;2.40;1.02;;;8.50;99.90;;;;;;5038110;28;20040;-72
2023/12/26 08:40:03;;;;;;;4.30;0.70;;;8.50;99.90;;;;;;5029046;28;20072;-71
2023/12/26 08:42:29;;;;;;;11.60;1.77;;;8.60;99.90;;;;;;5026265;28;20087;-71
2023/12/26 08:44:55;;;;;;;17.20;2.22;;;8.60;99.90;;;;;;5043774;28;20487;-71
2023/12/26 08:47:21;;;;;;;3.00;0.95;;;8.50;99.90;;;;;;5043192;28;20043;-71
2023/12/26 08:49:46;;;;;;;8.88;1.35;;;8.60;99.90;;;;;;5043105;28;20496;-71
2023/12/26 08:52:13;;;;;;;3.65;0.65;;;8.60;99.90;;;;;;5028331;28;20143;-71
2023/12/26 08:54:41;;;;;;;19.20;3.10;;;8.60;99.90;;;;;;5042607;28;20036;-71
2023/12/26 08:57:07;;;;;;;4.53;1.02;;;8.60;99.90;;;;;;5028370;28;20040;-71
2023/12/26 08:59:32;;;;;;;6.03;1.13;;;8.60;99.90;;;;;;5042293;28;20406;-72
2023/12/26 09:01:58;;;;;;;7.57;1.30;;;8.60;99.90;;;;;;5030148;28;20410;-71
2023/12/26 09:04:26;;;;;;;14.65;1.17;;;8.60;99.90;;;;;;5017694;28;20047;-72
2023/12/26 09:06:53;;;;;;;1.48;0.63;;;8.60;99.90;;;;;;5024057;28;20486;-71
2023/12/26 09:09:18;;;;;;;2.13;0.73;;;8.60;99.90;;;;;;5027896;28;20490;-71
2023/12/26 09:11:44;;;;;;;8.65;0.93;;;8.60;99.90;;;;;;5042510;28;20041;-72
2023/12/26 09:14:10;;;;;;;7.78;1.38;;;8.60;99.90;;;;;;5026271;28;20203;-72
2023/12/26 09:16:36;;;;;;;9.57;1.30;;;8.70;99.90;;;;;;5026749;28;20354;-71
2023/12/26 09:19:02;;;;;;;2.63;1.15;;;8.60;99.90;;;;;;5016549;28;20483;-72
2023/12/26 09:21:27;;;;;;;15.40;2.35;;;8.60;99.90;;;;;;5024014;28;20402;-71
2023/12/26 09:23:53;;;;;;;8.93;1.55;;;8.70;99.90;;;;;;5038128;28;20054;-71
2023/12/26 09:26:24;;;;;;;0.90;0.35;;;8.70;99.90;;;;;;5040410;28;20149;-71
2023/12/26 09:28:50;;;;;;;6.53;0.93;;;8.80;99.90;;;;;;5041216;28;20491;-71
2023/12/26 09:31:16;;;;;;;7.60;1.65;;;8.80;99.90;;;;;;5044856;28;20517;-72
2023/12/26 09:33:41;;;;;;;6.28;1.17;;;8.80;99.90;;;;;;5021227;28;20320;-71
2023/12/26 09:36:07;;;;;;;2.75;0.70;;;8.80;99.90;;;;;;5027054;28;20040;-71
2023/12/26 09:38:33;;;;;;;3.22;0.70;;;8.80;99.90;;;;;;5030340;28;20205;-71
2023/12/26 09:40:59;;;;;;;4.97;1.45;;;8.80;99.90;;;;;;5032970;28;20098;-71
2023/12/26 09:43:25;;;;;;;6.53;0.90;;;8.80;99.90;;;;;;5013975;28;20055;-71
2023/12/26 09:45:51;;;;;;;5.05;1.13;;;8.70;99.90;;;;;;5007388;28;20485;-72
2023/12/26 09:48:17;;;;;;;11.25;1.58;;;8.70;99.90;;;;;;5026411;28;20053;-71
2023/12/26 09:50:45;;;;;;;16.63;2.75;;;8.70;99.90;;;;;;5025021;28;20049;-71
2023/12/26 09:53:13;;;;;;;16.83;3.33;;;8.70;99.90;;;;;;5027298;28;20052;-71
2023/12/26 09:55:38;;;;;;;3.80;1.02;;;8.70;99.90;;;;;;5039593;28;20044;-71
2023/12/26 09:58:05;;;;;;;8.60;1.40;;;8.80;99.90;;;;;;5026169;28;20102;-71
2023/12/26 10:00:32;;;;;;;2.97;0.93;;;8.70;99.90;;;;;;5040840;28;20498;-71
2023/12/26 10:02:59;;;;;;;11.75;2.83;;;8.80;99.90;;;;;;5010987;28;20083;-71
2023/12/26 10:05:25;;;;;;;4.40;0.85;;;8.80;99.90;;;;;;5043208;28;20044;-71
2023/12/26 10:07:51;;;;;;;14.18;2.40;;;8.80;99.90;;;;;;5022431;28;20174;-71
2023/12/26 10:10:20;;;;;;;15.07;2.10;;;8.70;99.90;;;;;;5010214;28;20175;-71
2023/12/26 10:12:50;;;;;;;2.63;0.82;;;8.70;99.90;;;;;;5041073;28;20145;-72
2023/12/26 10:15:17;;;;;;;14.27;1.90;;;8.70;99.90;;;;;;5043580;28;20507;-72
2023/12/26 10:17:43;;;;;;;10.65;1.38;;;8.70;99.90;;;;;;5022451;28;20040;-71
2023/12/26 10:20:12;;;;;;;4.35;1.48;;;8.80;99.90;;;;;;5011107;28;20052;-71
2023/12/26 10:22:41;;;;;;;6.50;1.10;;;8.80;99.90;;;;;;5034749;28;20052;-71
2023/12/26 10:25:08;;;;;;;3.03;0.85;;;8.80;99.90;;;;;;5042662;28;20036;-71
2023/12/26 10:27:33;;;;;;;14.07;2.72;;;8.80;99.90;;;;;;5054000;28;20044;-70
2023/12/26 10:29:59;;;;;;;8.13;0.80;;;8.80;99.90;;;;;;5024840;28;20037;-71
2023/12/26 10:32:25;;;;;;;5.35;0.73;;;8.80;99.90;;;;;;5011292;28;20048;-71
2023/12/26 10:34:52;;;;;;;8.07;1.25;;;8.90;99.90;;;;;;5024786;28;20056;-71
2023/12/26 10:37:22;;;;;;;7.75;1.38;;;8.90;99.90;;;;;;5024165;28;20040;-69
2023/12/26 10:39:49;;;;;;;2.63;0.75;;;8.90;99.90;;;;;;5030531;28;20048;-70
2023/12/26 10:42:16;;;;;;;3.17;1.00;;;9.00;99.90;;;;;;5028491;28;20076;-71
2023/12/26 10:45:04;;;;;;;16.63;2.53;;;9.00;99.90;;;;;;5026145;28;20824;-70
2023/12/26 10:47:31;;;;;;;6.82;1.33;;;9.00;99.90;;;;;;5042808;28;20083;-71
2023/12/26 10:50:02;;;;;;;18.42;3.78;;;9.00;99.90;;;;;;5013136;28;20587;-70
2023/12/26 10:52:29;;;;;;;5.97;1.58;;;9.00;99.90;;;;;;5045393;28;20060;-71
2023/12/26 10:55:04;;;;;;;3.58;1.10;;;9.00;99.90;;;;;;5010519;28;20505;-71
2023/12/26 10:57:35;;;;;;;10.90;1.92;;;9.00;99.90;;;;;;5016351;28;20082;-71
2023/12/26 13:52:14;;;;;;;8.48;2.17;;;8.00;99.90;;;;;;5038507;28;20056;-68
2023/12/26 13:54:40;;;;;;;8.65;1.63;;;7.90;99.90;;;;;;5044352;28;20052;-67
2023/12/26 13:57:06;;;;;;;3.83;1.20;;;7.90;99.90;;;;;;5039369;28;20076;-68
2023/12/26 13:59:32;;;;;;;7.50;1.15;;;7.90;99.90;;;;;;5032691;28;20046;-68
2023/12/26 14:01:58;;;;;;;8.85;1.42;;;7.90;99.90;;;;;;5040649;28;20040;-68
2023/12/26 14:04:23;;;;;;;6.68;1.10;;;7.90;99.90;;;;;;5050144;28;20625;-68
2023/12/26 14:06:51;;;;;;;7.03;1.35;;;7.80;99.90;;;;;;5045180;28;20131;-68
2023/12/26 14:09:17;;;;;;;6.38;1.60;;;7.90;99.90;;;;;;5042674;28;20498;-68
2023/12/26 14:11:43;;;;;;;7.20;1.48;;;7.80;99.90;;;;;;5024582;28;20045;-68
2023/12/26 14:14:09;;;;;;;9.43;1.48;;;7.90;99.90;;;;;;5035938;28;20044;-68
2023/12/26 14:16:34;;;;;;;10.00;1.13;;;7.90;99.90;;;;;;5044079;28;20055;-68
2023/12/26 14:19:00;;;;;;;7.72;1.70;;;7.90;99.90;;;;;;5045663;28;20053;-67
2023/12/26 14:21:26;;;;;;;5.95;1.05;;;7.80;99.90;;;;;;5038451;28;20479;-68
2023/12/26 14:23:51;;;;;;;8.55;1.35;;;7.80;99.90;;;;;;5046482;28;20116;-68
2023/12/26 14:26:17;;;;;;;7.15;1.58;;;7.80;99.90;;;;;;5039737;28;20530;-68
2023/12/26 14:28:43;;;;;;;7.25;1.40;;;7.80;99.90;;;;;;5008535;28;20543;-67
2023/12/26 14:31:08;;;;;;;11.05;1.75;;;7.70;99.90;;;;;;5013999;28;20131;-68
2023/12/26 14:33:34;;;;;;;15.57;2.13;;;7.60;99.90;;;;;;5040924;28;20061;-68
2023/12/26 14:36:00;;;;;;;9.88;1.77;;;7.60;99.90;;;;;;5035755;28;20036;-68
2023/12/26 14:38:26;;;;;;;10.13;1.65;;;7.50;99.90;;;;;;5008166;28;20064;-68
2023/12/26 14:40:51;;;;;;;7.35;1.40;;;7.50;99.90;;;;;;5036439;28;20071;-68
2023/12/26 14:43:17;;;;;;;14.93;2.00;;;7.50;99.90;;;;;;5018543;28;20055;-67
2023/12/26 14:45:43;;;;;;;9.10;1.80;;;7.40;99.90;;;;;;5026302;28;20052;-67
2023/12/26 14:48:08;;;;;;;7.45;1.30;;;7.50;99.90;;;;;;5041933;28;20056;-68
2023/12/26 14:50:35;;;;;;;6.55;1.20;;;7.40;99.90;;;;;;5030654;28;20044;-68
2023/12/26 14:53:00;;;;;;;6.97;1.33;;;7.30;99.90;;;;;;5035114;28;20057;-68
2023/12/26 14:55:26;;;;;;;10.43;1.30;;;7.40;99.90;;;;;;5036938;28;20055;-67
2023/12/26 14:57:52;;;;;;;12.65;2.90;;;7.30;99.90;;;;;;5020264;28;20483;-67
2023/12/26 15:00:18;;;;;;;10.93;1.85;;;7.20;99.90;;;;;;5028432;28;20499;-68
2023/12/26 15:02:44;;;;;;;10.60;2.17;;;7.20;99.90;;;;;;5041256;28;20772;-68
2023/12/26 15:05:10;;;;;;;10.45;1.83;;;7.20;99.90;;;;;;5042654;28;20517;-67
2023/12/26 15:07:37;;;;;;;13.65;2.47;;;7.20;99.90;;;;;;5021937;28;20045;-68
2023/12/26 15:10:04;;;;;;;11.82;2.65;;;7.20;99.90;;;;;;5045655;28;20052;-68
2023/12/26 15:12:30;;;;;;;9.07;2.65;;;7.20;99.90;;;;;;5041651;28;20075;-68
2023/12/26 15:14:56;;;;;;;7.95;1.63;;;7.10;99.90;;;;;;5042322;28;20490;-68
2023/12/26 15:17:22;;;;;;;8.52;1.77;;;6.90;99.90;;;;;;5043746;28;20445;-68
2023/12/26 15:19:48;;;;;;;6.97;1.75;;;6.80;99.90;;;;;;5022137;28;20045;-68
2023/12/26 15:22:15;;;;;;;4.93;1.30;;;6.80;99.90;;;;;;5023799;28;20131;-67
2023/12/26 15:24:41;;;;;;;11.13;1.80;;;6.70;99.90;;;;;;5040784;28;20045;-68
2023/12/26 15:27:07;;;;;;;11.00;1.67;;;6.60;99.90;;;;;;5018364;28;20437;-68
2023/12/26 15:29:34;;;;;;;11.68;1.88;;;6.60;99.90;;;;;;5015777;28;20055;-68
2023/12/26 15:32:00;;;;;;;12.05;2.13;;;6.60;99.90;;;;;;5018612;28;20041;-68
2023/12/26 15:34:26;;;;;;;10.27;1.67;;;6.50;99.90;;;;;;5023268;28;20048;-68
2023/12/26 15:36:52;;;;;;;11.52;1.80;;;6.50;99.90;;;;;;5020708;28;20492;-68
2023/12/26 15:39:18;;;;;;;10.27;1.88;;;6.50;99.90;;;;;;5057383;28;20044;-68
2023/12/26 15:41:44;;;;;;;15.00;2.33;;;6.50;99.90;;;;;;5037994;28;20053;-68